Time;durP1;ratioP1;P1;durP2;ratioP2;P2;SDS_P1;SDS_P2;PMS_P1;PMS_P2;Temp;Humidity;BMP_temperature;BMP_pressure;BME280_temperature;BME280_humidity;BME280_pressure;Samples;Min_cycle;Max_cycle;Signal;HPM_P1;HPM_P2
2023/03/06 00:00:42;;;;;;;18.50;7.60;;;;;;;-0.18;70.12;99180.14;683017;1262;139156;-79
2023/03/06 00:15:52;;;;;;;15.60;6.60;;;;;;;-0.28;70.28;99185.04;682728;1262;138702;-80
2023/03/06 00:30:55;;;;;;;15.80;6.60;;;;;;;-0.37;70.47;99181.14;682880;1260;139138;-80
2023/03/06 00:45:59;;;;;;;15.90;7.40;;;;;;;-0.47;70.34;99171.95;683015;1259;138473;-80
2023/03/06 01:01:02;;;;;;;20.50;7.70;;;;;;;-0.59;70.66;99167.36;683250;1260;138637;-81
2023/03/06 01:16:08;;;;;;;19.80;7.10;;;;;;;-0.70;70.68;99162.27;682949;1261;141245;-80
2023/03/06 01:31:11;;;;;;;23.50;9.00;;;;;;;-0.76;70.71;99159.25;682811;1263;138716;-80
2023/03/06 01:46:42;;;;;;;15.80;7.20;;;;;;;-0.79;70.70;99153.26;682832;1262;139710;-79
2023/03/06 02:01:46;;;;;;;14.60;6.20;;;;;;;-0.83;70.60;99144.55;683173;1260;139525;-80
2023/03/06 02:16:50;;;;;;;13.80;6.90;;;;;;;-0.97;71.15;99134.19;682486;1260;138886;-78
2023/03/06 02:31:53;;;;;;;15.00;6.30;;;;;;;-0.98;71.77;99136.29;682987;1262;138670;-79
2023/03/06 02:46:56;;;;;;;17.00;7.90;;;;;;;-1.03;71.65;99130.06;683095;1260;138719;-80
2023/03/06 03:01:59;;;;;;;18.40;7.60;;;;;;;-1.17;72.38;99129.86;683563;1261;138809;-80
2023/03/06 03:17:03;;;;;;;15.80;8.20;;;;;;;-1.26;72.68;99129.71;683153;1262;138791;-80
2023/03/06 03:32:06;;;;;;;19.60;8.20;;;;;;;-1.33;72.48;99126.64;683417;1262;138612;-80
2023/03/06 03:47:11;;;;;;;13.60;6.70;;;;;;;-1.42;72.79;99120.27;683040;1260;138945;-79
2023/03/06 04:02:14;;;;;;;16.50;7.50;;;;;;;-1.28;71.85;99108.55;683291;1262;138629;-81
2023/03/06 04:17:33;;;;;;;19.40;7.00;;;;;;;-1.12;71.91;99108.65;683160;1260;139607;-79
2023/03/06 04:32:37;;;;;;;16.40;7.00;;;;;;;-0.91;72.44;99105.17;683020;1261;138877;-78
2023/03/06 04:47:41;;;;;;;18.10;7.20;;;;;;;-0.77;72.69;99099.36;683047;1260;138857;-79
2023/03/06 05:02:45;;;;;;;15.60;7.20;;;;;;;-0.84;72.96;99091.52;683345;1261;138953;-80
2023/03/06 05:17:48;;;;;;;22.20;8.70;;;;;;;-0.75;72.29;99087.73;683215;1260;138654;-79
2023/03/06 05:32:52;;;;;;;17.70;7.00;;;;;;;-0.77;72.29;99090.42;683365;1257;138705;-80
2023/03/06 05:47:56;;;;;;;18.90;7.70;;;;;;;-0.74;72.40;99088.02;683264;1260;138969;-79
2023/03/06 06:03:00;;;;;;;22.10;9.70;;;;;;;-0.74;72.38;99091.84;683084;1260;139106;-81
2023/03/06 06:18:03;;;;;;;39.40;15.50;;;;;;;-0.69;72.05;99087.37;682926;1259;138752;-79
2023/03/06 06:33:07;;;;;;;80.50;39.90;;;;;;;-0.59;72.20;99087.30;683018;1260;138907;-78
2023/03/06 06:48:11;;;;;;;45.10;18.50;;;;;;;0.07;71.80;99088.18;682961;1259;138658;-79
2023/03/06 07:03:14;;;;;;;45.60;20.30;;;;;;;0.29;70.95;99100.39;682871;1262;138744;-79
2023/03/06 07:18:17;;;;;;;33.30;15.10;;;;;;;1.04;70.23;99094.45;682667;1260;138583;-80
2023/03/06 07:33:20;;;;;;;61.90;30.20;;;;;;;2.12;69.35;99096.48;682656;1260;138915;-82
2023/03/06 07:48:24;;;;;;;33.80;15.80;;;;;;;2.75;68.17;99097.58;682716;1262;138962;-81
2023/03/06 08:03:28;;;;;;;21.30;10.00;;;;;;;4.06;66.85;99094.29;682882;1262;139007;-80
2023/03/06 08:18:32;;;;;;;29.80;12.70;;;;;;;4.71;64.47;99093.08;682757;1259;138768;-81
2023/03/06 08:33:36;;;;;;;25.50;10.20;;;;;;;5.77;62.26;99099.08;682612;1262;139073;-81
2023/03/06 08:48:39;;;;;;;20.50;7.10;;;;;;;6.65;59.93;99101.44;682857;1262;138815;-81
2023/03/06 09:03:42;;;;;;;16.40;5.10;;;;;;;6.26;57.02;99107.52;682832;1263;138340;-81
2023/03/06 09:18:48;;;;;;;22.20;7.40;;;;;;;5.87;55.47;99107.62;682984;1263;138358;-81
2023/03/06 09:33:51;;;;;;;12.90;6.50;;;;;;;5.48;53.30;99102.39;683000;1257;137937;-81
2023/03/06 09:49:29;;;;;;;8.10;3.70;;;;;;;5.52;53.34;99095.27;682913;1263;138402;-81
2023/03/06 10:04:48;;;;;;;6.90;3.70;;;;;;;5.86;52.00;99085.14;682864;1266;137783;-83
2023/03/06 10:19:51;;;;;;;41.00;19.30;;;;;;;5.69;49.90;99075.50;682762;1262;137728;-82
2023/03/06 10:34:58;;;;;;;6.60;4.10;;;;;;;5.95;49.38;99064.89;682756;1261;138129;-83
2023/03/06 10:50:22;;;;;;;16.70;8.70;;;;;;;6.40;48.77;99060.29;682795;1262;137595;-84
2023/03/06 11:05:26;;;;;;;9.70;4.90;;;;;;;7.54;48.20;99052.57;682290;1260;137670;-85
2023/03/06 11:20:54;;;;;;;7.40;3.60;;;;;;;7.67;47.32;99046.67;682647;1263;137340;-83
2023/03/06 11:36:07;;;;;;;20.60;9.70;;;;;;;7.09;47.10;99033.17;682539;1262;137926;-87
2023/03/06 11:51:22;;;;;;;20.30;11.10;;;;;;;6.85;47.98;99026.27;682649;1262;137762;-86
2023/03/06 12:06:48;;;;;;;22.70;8.30;;;;;;;6.95;47.67;99020.70;683037;1260;137786;-84
2023/03/06 12:22:11;;;;;;;30.00;15.80;;;;;;;6.64;47.68;99008.92;682724;1262;138672;-86
2023/03/06 12:37:30;;;;;;;18.70;8.30;;;;;;;6.87;48.52;99005.80;683498;1262;137974;-81
2023/03/06 12:52:34;;;;;;;24.50;11.00;;;;;;;7.30;48.75;99003.20;683185;1263;136478;-86
2023/03/06 13:08:01;;;;;;;50.10;22.00;;;;;;;6.67;48.01;98994.39;683047;1259;152793;-84
2023/03/06 13:23:32;;;;;;;25.60;12.30;;;;;;;6.92;48.86;98987.12;682958;1262;137996;-83
2023/03/06 13:38:53;;;;;;;21.10;10.00;;;;;;;6.77;49.11;98976.64;683221;1262;138085;-87
2023/03/06 13:54:12;;;;;;;19.10;10.60;;;;;;;5.90;49.69;98982.55;682952;1260;137849;-84
2023/03/06 14:09:23;;;;;;;37.20;15.70;;;;;;;5.18;52.83;98984.09;683158;1261;137643;-82
2023/03/06 14:24:43;;;;;;;66.00;31.50;;;;;;;4.86;54.45;98987.05;683008;1263;138191;-84
2023/03/06 14:39:47;;;;;;;48.10;21.10;;;;;;;4.58;55.94;98978.47;682791;1263;137835;-82
2023/03/06 14:54:51;;;;;;;33.30;16.00;;;;;;;4.36;57.36;98969.52;682814;1261;137842;-84
2023/03/06 15:09:54;;;;;;;55.90;24.90;;;;;;;4.23;58.94;98971.48;682632;1260;138129;-81
2023/03/06 15:25:19;;;;;;;44.00;18.20;;;;;;;4.14;59.66;98969.63;682844;1262;139014;-81
2023/03/06 15:40:26;;;;;;;37.60;17.50;;;;;;;4.06;61.19;98969.23;682495;1259;138508;-80
2023/03/06 15:55:30;;;;;;;147.20;47.70;;;;;;;3.96;61.72;98970.20;682828;1260;138832;-83
2023/03/06 16:10:37;;;;;;;65.60;26.90;;;;;;;3.69;62.84;98965.13;682608;1260;138914;-84
2023/03/06 16:25:45;;;;;;;40.10;21.40;;;;;;;3.49;63.00;98965.00;682774;1263;138489;-81
2023/03/06 16:40:50;;;;;;;28.00;14.10;;;;;;;3.46;63.32;98967.48;682717;1260;139002;-83
2023/03/06 16:55:54;;;;;;;28.60;12.50;;;;;;;3.42;63.44;98953.60;683114;1260;138860;-81
2023/03/06 17:10:57;;;;;;;123.90;43.10;;;;;;;3.55;63.33;98950.52;682829;1260;139306;-82
2023/03/06 17:26:08;;;;;;;22.00;10.30;;;;;;;3.59;63.75;98956.22;682658;1261;138756;-82
2023/03/06 17:41:12;;;;;;;38.40;17.70;;;;;;;3.42;64.81;98958.07;682510;1259;138816;-80
2023/03/06 17:56:15;;;;;;;42.00;16.70;;;;;;;3.40;65.61;98960.04;682760;1261;138518;-80
2023/03/06 18:11:20;;;;;;;60.70;25.20;;;;;;;3.40;65.88;98961.20;682626;1257;138610;-79
2023/03/06 18:26:25;;;;;;;53.60;22.30;;;;;;;3.18;66.47;98959.48;682845;1257;138651;-82
2023/03/06 18:41:29;;;;;;;196.90;59.70;;;;;;;3.16;66.59;98963.93;682934;1260;138514;-79
2023/03/06 18:56:33;;;;;;;53.90;25.30;;;;;;;3.37;66.35;98963.66;682867;1259;138862;-80
2023/03/06 19:11:36;;;;;;;113.90;36.60;;;;;;;3.37;66.16;98963.89;682793;1260;138697;-80
2023/03/06 19:26:40;;;;;;;272.30;97.30;;;;;;;3.24;65.97;98957.83;682898;1258;138549;-79
2023/03/06 19:41:45;;;;;;;191.90;67.90;;;;;;;2.93;66.24;98959.12;682881;1262;138666;-81
2023/03/06 19:56:49;;;;;;;393.50;132.70;;;;;;;2.57;66.02;98957.21;682995;1262;138957;-83
2023/03/06 20:11:52;;;;;;;214.30;71.30;;;;;;;2.37;66.25;98966.16;682643;1257;139008;-81
2023/03/06 20:26:58;;;;;;;235.50;75.50;;;;;;;2.25;65.56;98968.23;682765;1262;138539;-81
2023/03/06 20:42:02;;;;;;;66.90;29.30;;;;;;;1.85;67.33;98975.95;682438;1262;138636;-81
2023/03/06 20:57:06;;;;;;;101.50;43.10;;;;;;;1.69;67.58;98979.23;682819;1260;138801;-81
2023/03/06 21:12:10;;;;;;;67.50;30.40;;;;;;;1.47;69.77;98981.59;682804;1259;139031;-78
2023/03/06 21:27:16;;;;;;;85.70;32.50;;;;;;;1.26;70.46;98984.59;683023;1263;138817;-81
2023/03/06 21:42:19;;;;;;;79.60;34.30;;;;;;;1.06;70.86;98986.19;682999;1260;138891;-82
2023/03/06 21:57:24;;;;;;;68.50;29.70;;;;;;;0.97;71.45;98987.13;683215;1260;138933;-82
2023/03/06 22:12:27;;;;;;;64.50;26.90;;;;;;;1.02;71.53;98982.11;683157;1262;138661;-84
2023/03/06 22:27:31;;;;;;;57.00;26.00;;;;;;;1.06;70.91;98979.79;682951;1257;138721;-81
2023/03/06 22:42:34;;;;;;;70.70;27.20;;;;;;;1.07;70.56;98979.96;682996;1261;138770;-79
2023/03/06 22:57:38;;;;;;;53.40;23.10;;;;;;;0.83;70.91;98976.90;682581;1260;139410;-80
2023/03/06 23:12:42;;;;;;;46.80;23.10;;;;;;;0.81;70.13;98979.45;683164;1263;138656;-80
2023/03/06 23:28:04;;;;;;;46.20;23.30;;;;;;;0.77;69.94;98970.56;683055;1262;138616;-80
2023/03/06 23:43:07;;;;;;;53.90;22.50;;;;;;;0.72;69.38;98979.36;683057;1261;138924;-79
2023/03/06 23:58:12;;;;;;;55.00;22.50;;;;;;;0.60;69.15;98978.96;682854;1257;139354;-79
